createdAt,value
2019-05-29T00:00:30.354Z,25.32
2019-05-29T00:02:56.617Z,25.85
2019-05-29T00:05:22.836Z,26.97
2019-05-29T00:07:49.157Z,24.92
2019-05-29T00:10:15.555Z,25.37
2019-05-29T00:12:41.833Z,25.70
2019-05-29T00:15:08.528Z,23.42
2019-05-29T00:17:34.936Z,26.25
2019-05-29T00:20:01.304Z,29.05
2019-05-29T00:22:27.415Z,29.60
2019-05-29T00:24:53.710Z,27.13
2019-05-29T00:27:19.837Z,33.48
2019-05-29T00:29:46.120Z,29.42
2019-05-29T00:32:13.492Z,25.27
2019-05-29T00:34:39.842Z,25.48
2019-05-29T00:37:06.368Z,27.80
2019-05-29T00:39:32.756Z,30.92
2019-05-29T00:41:59.182Z,28.45
2019-05-29T00:44:33.903Z,26.60
2019-05-29T00:46:59.834Z,31.48
2019-05-29T00:49:29.874Z,26.87
2019-05-29T00:52:10.618Z,30.32
2019-05-29T00:54:37.172Z,28.42
2019-05-29T00:57:03.601Z,28.32
2019-05-29T00:59:29.867Z,25.80
2019-05-29T01:01:56.201Z,24.35
2019-05-29T01:04:23.468Z,26.42
2019-05-29T01:06:49.682Z,26.12
2019-05-29T01:09:16.474Z,24.15
2019-05-29T01:11:42.873Z,30.05
2019-05-29T01:14:08.973Z,28.00
2019-05-29T01:16:35.233Z,28.23
2019-05-29T01:19:20.334Z,22.67
2019-05-29T01:21:46.672Z,23.10
2019-05-29T01:24:12.979Z,23.00
2019-05-29T01:26:39.420Z,22.32
2019-05-29T01:29:05.557Z,20.35
2019-05-29T01:31:31.827Z,15.75
2019-05-29T01:33:57.945Z,16.52
2019-05-29T01:36:24.248Z,14.50
2019-05-29T01:38:50.361Z,14.55
2019-05-29T01:41:17.126Z,17.50
2019-05-29T01:43:43.577Z,12.58
2019-05-29T01:46:09.927Z,15.03
2019-05-29T01:48:36.258Z,17.25
2019-05-29T01:51:03.138Z,16.70
2019-05-29T01:53:29.470Z,12.95
2019-05-29T01:55:55.681Z,11.97
2019-05-29T01:58:22.075Z,17.75
2019-05-29T02:00:52.356Z,13.13
2019-05-29T02:03:19.786Z,9.67
2019-05-29T02:05:46.126Z,14.43
2019-05-29T02:08:12.428Z,12.30
2019-05-29T02:10:40.203Z,16.20
2019-05-29T02:13:17.250Z,10.25
2019-05-29T02:15:45.546Z,13.75
2019-05-29T02:18:15.080Z,12.30
2019-05-29T02:20:41.410Z,9.08
2019-05-29T02:23:07.665Z,8.83
2019-05-29T02:25:34.764Z,9.78
2019-05-29T02:28:01.008Z,11.97
2019-05-29T02:30:30.323Z,8.53
2019-05-29T02:32:55.388Z,7.17
2019-05-29T02:35:22.602Z,9.10
2019-05-29T02:37:49.811Z,7.15
2019-05-29T02:40:16.083Z,7.53
2019-05-29T02:42:42.484Z,6.25
2019-05-29T02:45:09.121Z,10.55
2019-05-29T02:47:35.349Z,5.47
2019-05-29T02:50:13.512Z,10.00
2019-05-29T02:52:41.228Z,5.97
2019-05-29T02:55:10.605Z,7.78
2019-05-29T02:57:36.875Z,5.65
2019-05-29T03:00:06.339Z,7.00
2019-05-29T03:02:33.674Z,7.40
2019-05-29T03:04:59.954Z,6.78
2019-05-29T03:07:26.488Z,6.62
2019-05-29T03:09:53.299Z,7.75
2019-05-29T03:12:19.500Z,7.08
2019-05-29T03:14:45.682Z,7.03
2019-05-29T03:17:11.828Z,7.85
2019-05-29T03:19:38.096Z,7.80
2019-05-29T03:22:04.280Z,6.25
2019-05-29T03:24:33.037Z,7.12
2019-05-29T03:27:00.746Z,9.35
2019-05-29T03:29:32.079Z,9.48
2019-05-29T03:35:15.396Z,7.65
2019-05-29T03:43:24.119Z,9.08
2019-05-29T03:45:57.748Z,9.40
2019-05-29T03:48:40.724Z,8.28
2019-05-29T03:54:06.202Z,9.70
2019-05-29T03:59:17.646Z,10.15
2019-05-29T04:01:44.220Z,7.75
2019-05-29T04:04:17.411Z,6.37
2019-05-29T04:06:51.056Z,7.10
2019-05-29T04:15:08.923Z,6.78
2019-05-29T04:17:38.051Z,7.00
2019-05-29T04:20:05.571Z,5.35
2019-05-29T04:22:36.974Z,6.25
2019-05-29T04:25:05.864Z,8.85
2019-05-29T04:27:34.328Z,25.27
2019-05-29T04:30:01.678Z,20.70
2019-05-29T04:32:28.264Z,7.17
2019-05-29T04:34:54.798Z,10.72
2019-05-29T04:37:21.360Z,4.20
2019-05-29T04:39:57.152Z,7.35
2019-05-29T04:42:29.132Z,8.68
2019-05-29T04:44:55.771Z,3.67
2019-05-29T04:47:22.147Z,6.30
2019-05-29T04:49:48.561Z,7.25
2019-05-29T04:52:14.895Z,5.42
2019-05-29T04:54:41.153Z,8.45
2019-05-29T04:57:07.254Z,18.55
2019-05-29T04:59:33.564Z,8.60
2019-05-29T05:02:02.198Z,10.40
2019-05-29T05:04:29.110Z,6.00
2019-05-29T05:06:57.739Z,6.33
2019-05-29T05:09:24.523Z,7.17
2019-05-29T05:11:51.292Z,8.45
2019-05-29T05:14:17.978Z,9.15
2019-05-29T05:16:44.916Z,6.80
2019-05-29T05:19:13.154Z,6.58
2019-05-29T05:21:40.279Z,4.97
2019-05-29T05:24:06.502Z,5.75
2019-05-29T05:26:32.782Z,8.13
2019-05-29T05:29:00.120Z,6.58
2019-05-29T05:31:26.429Z,7.35
2019-05-29T05:33:52.637Z,7.97
2019-05-29T05:36:18.832Z,5.12
2019-05-29T05:38:45.200Z,7.10
2019-05-29T05:41:11.479Z,7.17
2019-05-29T05:43:37.596Z,10.40
2019-05-29T05:46:04.845Z,8.60
2019-05-29T05:48:31.079Z,7.45
2019-05-29T05:50:57.464Z,8.43
2019-05-29T05:53:23.709Z,6.92
2019-05-29T05:55:49.891Z,7.30
2019-05-29T05:58:16.118Z,7.10
2019-05-29T06:00:42.300Z,7.97
2019-05-29T06:03:08.505Z,8.70
2019-05-29T06:05:36.045Z,3.87
2019-05-29T06:08:02.719Z,6.08
2019-05-29T06:10:30.239Z,3.92
2019-05-29T06:12:56.463Z,5.87
2019-05-29T06:15:22.735Z,4.08
2019-05-29T06:18:05.081Z,4.78
2019-05-29T06:20:17.146Z,3.58
2019-05-29T06:22:43.648Z,7.22
2019-05-29T06:25:10.284Z,6.85
2019-05-29T06:27:37.133Z,5.22
2019-05-29T06:30:06.588Z,7.35
2019-05-29T06:32:33.451Z,4.17
2019-05-29T06:34:59.992Z,7.15
2019-05-29T06:37:26.099Z,4.92
2019-05-29T06:39:52.316Z,3.90
2019-05-29T06:42:18.598Z,8.88
2019-05-29T06:44:47.660Z,6.53
2019-05-29T06:47:13.069Z,4.97
2019-05-29T06:49:40.120Z,5.90
2019-05-29T06:52:09.210Z,5.30
2019-05-29T06:54:35.660Z,5.17
2019-05-29T06:57:04.008Z,4.37
2019-05-29T06:59:30.267Z,4.10
2019-05-29T07:01:57.680Z,4.97
2019-05-29T07:04:23.783Z,4.33
2019-05-29T07:06:50.004Z,6.55
2019-05-29T07:09:16.210Z,6.55
2019-05-29T07:11:43.497Z,4.53
2019-05-29T07:14:09.874Z,5.80
2019-05-29T07:16:45.313Z,6.62
2019-05-29T07:21:32.543Z,5.53
2019-05-29T07:23:58.637Z,6.15
2019-05-29T07:26:24.951Z,7.08
2019-05-29T07:29:07.401Z,5.72
2019-05-29T07:31:19.383Z,5.55
2019-05-29T07:33:45.588Z,5.47
2019-05-29T07:36:12.037Z,6.15
2019-05-29T07:38:39.552Z,5.85
2019-05-29T07:41:06.160Z,5.72
2019-05-29T07:43:33.393Z,5.58
2019-05-29T07:45:59.754Z,4.30
2019-05-29T07:48:26.037Z,8.70
2019-05-29T07:51:06.281Z,8.10
2019-05-29T07:53:20.871Z,4.72
2019-05-29T07:55:47.229Z,6.40
2019-05-29T07:58:13.507Z,5.95
2019-05-29T08:01:00.958Z,8.10
2019-05-29T08:03:08.035Z,7.40
2019-05-29T08:05:34.394Z,7.85
2019-05-29T08:08:00.748Z,7.35
2019-05-29T08:10:27.302Z,6.45
2019-05-29T08:12:56.027Z,6.47
2019-05-29T08:15:22.476Z,5.00
2019-05-29T08:17:50.152Z,4.42
2019-05-29T08:20:17.254Z,9.00
2019-05-29T08:22:44.460Z,4.65
2019-05-29T08:25:11.099Z,8.30
2019-05-29T08:27:37.326Z,5.03
2019-05-29T08:30:08.641Z,5.22
2019-05-29T08:32:34.870Z,5.75
2019-05-29T08:35:01.192Z,4.67
2019-05-29T08:37:27.364Z,8.15
2019-05-29T08:39:53.637Z,5.90
2019-05-29T08:42:23.250Z,3.87
2019-05-29T08:44:48.086Z,4.67
2019-05-29T08:47:14.500Z,4.72
2019-05-29T08:49:41.688Z,4.35
2019-05-29T08:52:12.212Z,6.65
2019-05-29T08:54:36.301Z,4.70
2019-05-29T08:57:02.728Z,5.83
2019-05-29T08:59:28.925Z,4.45
2019-05-29T09:01:55.678Z,8.05
2019-05-29T09:04:22.040Z,6.78
2019-05-29T09:06:49.202Z,6.67
2019-05-29T09:09:15.510Z,8.43
2019-05-29T09:11:43.007Z,7.58
2019-05-29T09:14:09.260Z,6.30
2019-05-29T09:16:35.575Z,8.30
2019-05-29T09:19:01.787Z,9.88
2019-05-29T09:21:28.223Z,12.98
2019-05-29T09:23:58.334Z,6.70
2019-05-29T09:26:25.505Z,6.70
2019-05-29T09:28:50.829Z,7.50
2019-05-29T09:31:20.313Z,5.65
2019-05-29T09:33:51.784Z,5.72
2019-05-29T09:36:18.806Z,4.87
2019-05-29T09:38:45.524Z,5.75
2019-05-29T09:41:15.715Z,6.33
2019-05-29T09:43:57.738Z,4.97
2019-05-29T09:46:12.643Z,5.55
2019-05-29T09:48:49.232Z,10.97
2019-05-29T09:51:20.601Z,8.08
2019-05-29T09:53:36.293Z,5.08
2019-05-29T09:56:05.499Z,7.58
2019-05-29T09:58:32.184Z,6.53
2019-05-29T10:01:17.148Z,6.33
2019-05-29T10:03:26.695Z,5.78
2019-05-29T10:05:54.649Z,4.08
2019-05-29T10:08:21.628Z,4.83
2019-05-29T10:10:48.295Z,5.97
2019-05-29T10:13:15.544Z,6.80
2019-05-29T10:15:49.447Z,9.13
2019-05-29T10:18:31.284Z,4.28
2019-05-29T10:20:44.184Z,5.87
2019-05-29T10:23:10.498Z,6.22
2019-05-29T10:25:38.099Z,6.15
2019-05-29T10:28:06.103Z,9.25
2019-05-29T10:30:32.715Z,6.42
2019-05-29T10:32:59.030Z,9.35
2019-05-29T10:35:25.741Z,6.55
2019-05-29T10:37:53.169Z,5.90
2019-05-29T10:40:19.639Z,5.58
2019-05-29T10:42:47.142Z,6.08
2019-05-29T10:45:14.573Z,5.45
2019-05-29T10:47:41.098Z,5.95
2019-05-29T10:50:08.974Z,6.95
2019-05-29T10:52:35.519Z,7.72
2019-05-29T10:55:01.855Z,8.00
2019-05-29T10:57:28.499Z,5.53
2019-05-29T10:59:54.920Z,8.08
2019-05-29T11:02:23.118Z,5.78
2019-05-29T11:04:53.026Z,8.23
2019-05-29T11:07:17.415Z,7.00
2019-05-29T11:09:45.043Z,7.28
2019-05-29T11:12:12.571Z,4.87
2019-05-29T11:14:38.805Z,5.33
2019-05-29T11:17:05.425Z,7.37
2019-05-29T11:19:35.700Z,8.53
2019-05-29T11:22:24.784Z,7.65
2019-05-29T11:24:30.293Z,4.22
2019-05-29T11:26:56.737Z,6.53
2019-05-29T11:29:23.208Z,12.43
2019-05-29T11:31:53.239Z,8.70
2019-05-29T11:34:19.541Z,10.85
2019-05-29T11:36:45.800Z,5.17
2019-05-29T11:39:13.339Z,4.97
2019-05-29T11:41:39.723Z,5.30
2019-05-29T11:44:10.232Z,7.45
2019-05-29T11:46:39.625Z,4.92
2019-05-29T11:49:07.929Z,6.85
2019-05-29T11:51:36.065Z,5.05
2019-05-29T11:54:02.579Z,5.30
2019-05-29T11:56:28.747Z,5.92
2019-05-29T11:58:54.971Z,3.52
2019-05-29T12:01:23.213Z,4.62
2019-05-29T12:04:13.127Z,3.50
2019-05-29T12:06:17.817Z,5.10
2019-05-29T12:08:44.022Z,2.30
2019-05-29T12:11:10.225Z,6.95
2019-05-29T12:13:36.520Z,6.42
2019-05-29T12:16:04.018Z,7.78
2019-05-29T12:18:30.232Z,3.92
2019-05-29T12:20:58.291Z,5.58
2019-05-29T12:23:27.044Z,7.70
2019-05-29T12:26:12.840Z,7.78
2019-05-29T12:28:21.399Z,5.30
2019-05-29T12:30:47.772Z,5.85
2019-05-29T12:33:13.985Z,7.58
2019-05-29T12:35:40.276Z,8.60
2019-05-29T12:38:06.468Z,4.65
2019-05-29T12:40:33.249Z,5.12
2019-05-29T12:43:00.239Z,4.85
2019-05-29T12:45:27.125Z,6.20
2019-05-29T12:47:54.179Z,3.40
2019-05-29T12:50:21.531Z,4.37
2019-05-29T12:52:49.778Z,3.60
2019-05-29T12:55:16.362Z,4.45
2019-05-29T12:57:42.707Z,3.52
2019-05-29T13:00:13.844Z,6.25
2019-05-29T13:02:42.126Z,6.60
2019-05-29T13:05:19.308Z,4.12
2019-05-29T13:07:40.172Z,3.47
2019-05-29T13:10:06.979Z,4.78
2019-05-29T13:12:33.771Z,3.12
2019-05-29T13:15:05.394Z,6.42
2019-05-29T13:17:31.625Z,4.92
2019-05-29T13:20:07.186Z,3.25
2019-05-29T13:22:28.366Z,2.17
2019-05-29T13:24:57.846Z,3.70
2019-05-29T13:27:24.181Z,3.08
2019-05-29T13:29:50.498Z,2.50
2019-05-29T13:32:19.665Z,3.20
2019-05-29T13:34:46.241Z,4.47
2019-05-29T13:37:12.617Z,4.72
2019-05-29T13:39:38.886Z,3.90
2019-05-29T13:42:10.748Z,4.60
2019-05-29T13:44:33.673Z,4.05
2019-05-29T13:47:00.088Z,4.40
2019-05-29T13:49:26.254Z,3.40
2019-05-29T13:51:52.573Z,2.08
2019-05-29T13:54:18.762Z,3.47
2019-05-29T13:56:45.037Z,3.50
2019-05-29T13:59:11.147Z,3.30
2019-05-29T14:01:37.485Z,8.50
2019-05-29T14:04:05.202Z,2.85
2019-05-29T14:06:31.858Z,3.83
2019-05-29T14:08:58.989Z,2.65
2019-05-29T14:11:25.678Z,3.27
2019-05-29T14:13:51.898Z,3.72
2019-05-29T14:16:19.219Z,3.95
2019-05-29T14:18:45.631Z,4.45
2019-05-29T14:21:13.351Z,2.72
2019-05-29T14:23:40.100Z,3.10
2019-05-29T14:26:06.556Z,2.55
2019-05-29T14:28:32.816Z,3.85
2019-05-29T14:30:58.997Z,4.85
2019-05-29T14:33:25.297Z,2.52
2019-05-29T14:35:51.450Z,4.05
2019-05-29T14:38:17.682Z,3.83
2019-05-29T14:40:43.799Z,2.65
2019-05-29T14:43:13.684Z,3.50
2019-05-29T14:45:38.146Z,2.95
2019-05-29T14:48:06.008Z,1.95
2019-05-29T14:50:32.550Z,4.60
2019-05-29T14:52:58.895Z,3.52
2019-05-29T14:55:25.170Z,5.08
2019-05-29T14:57:51.295Z,4.10
2019-05-29T15:00:24.728Z,3.77
2019-05-29T15:02:46.194Z,2.65
2019-05-29T15:05:14.756Z,3.17
2019-05-29T15:07:41.218Z,6.12
2019-05-29T15:10:21.783Z,3.08
2019-05-29T15:12:36.972Z,4.95
2019-05-29T15:15:06.728Z,3.98
2019-05-29T15:17:33.805Z,10.10
2019-05-29T15:20:07.422Z,5.20
2019-05-29T15:22:34.576Z,4.42
2019-05-29T15:25:10.878Z,4.78
2019-05-29T15:27:29.829Z,5.15
2019-05-29T15:29:56.204Z,3.30
2019-05-29T15:32:22.735Z,2.05
2019-05-29T15:34:49.147Z,3.62
2019-05-29T15:37:18.241Z,3.20
2019-05-29T15:39:43.766Z,3.92
2019-05-29T15:42:10.912Z,4.75
2019-05-29T15:44:37.447Z,2.47
2019-05-29T15:47:03.774Z,2.90
2019-05-29T15:49:30.034Z,2.60
2019-05-29T15:51:56.303Z,2.55
2019-05-29T15:54:22.662Z,3.00
2019-05-29T15:56:49.664Z,7.10
2019-05-29T15:59:17.124Z,5.83
2019-05-29T16:01:46.185Z,2.05
2019-05-29T16:04:13.703Z,3.95
2019-05-29T16:06:40.966Z,9.93
2019-05-29T16:09:08.221Z,9.48
2019-05-29T16:11:35.262Z,5.87
2019-05-29T16:14:01.644Z,3.80
2019-05-29T16:16:28.078Z,2.20
2019-05-29T16:18:54.523Z,5.50
2019-05-29T16:21:20.848Z,3.70
2019-05-29T16:23:47.197Z,2.77
2019-05-29T16:26:31.810Z,2.47
2019-05-29T16:28:58.149Z,3.25
2019-05-29T16:31:24.511Z,2.15
2019-05-29T16:33:51.107Z,4.60
2019-05-29T16:36:18.657Z,3.92
2019-05-29T16:38:46.314Z,3.55
2019-05-29T16:41:13.757Z,3.12
2019-05-29T16:43:43.558Z,3.12
2019-05-29T16:46:14.224Z,1.67
2019-05-29T16:48:38.534Z,3.80
2019-05-29T16:51:05.077Z,3.35
2019-05-29T16:53:31.411Z,2.08
2019-05-29T16:55:57.847Z,1.82
2019-05-29T16:58:24.228Z,3.35
2019-05-29T17:00:50.412Z,2.92
2019-05-29T17:03:17.662Z,3.80
2019-05-29T17:05:43.927Z,2.45
2019-05-29T17:08:10.548Z,2.60
2019-05-29T17:10:36.926Z,2.80
2019-05-29T17:13:04.981Z,7.75
2019-05-29T17:15:31.178Z,2.55
2019-05-29T17:17:57.590Z,2.87
2019-05-29T17:20:39.291Z,2.00
2019-05-29T17:23:05.804Z,5.58
2019-05-29T17:25:33.310Z,5.15
2019-05-29T17:27:59.585Z,4.97
2019-05-29T17:30:30.954Z,3.83
2019-05-29T17:32:57.481Z,3.58
2019-05-29T17:35:23.697Z,2.50
2019-05-29T17:37:49.948Z,5.78
2019-05-29T17:40:17.022Z,4.20
2019-05-29T17:42:43.601Z,1.98
2019-05-29T17:45:11.133Z,2.67
2019-05-29T17:47:38.473Z,2.98
2019-05-29T17:50:06.558Z,4.72
2019-05-29T17:52:33.914Z,3.87
2019-05-29T17:55:00.274Z,2.80
2019-05-29T17:57:28.621Z,3.05
2019-05-29T17:59:54.951Z,3.02
2019-05-29T18:02:24.716Z,4.83
2019-05-29T18:04:53.443Z,3.50
2019-05-29T18:07:20.634Z,4.70
2019-05-29T18:09:47.099Z,5.62
2019-05-29T18:12:14.441Z,5.37
2019-05-29T18:14:40.882Z,3.87
2019-05-29T18:17:07.346Z,3.35
2019-05-29T18:19:33.870Z,5.47
2019-05-29T18:22:00.073Z,2.60
2019-05-29T18:24:27.920Z,2.33
2019-05-29T18:26:54.835Z,4.75
2019-05-29T18:29:22.220Z,3.67
2019-05-29T18:31:48.866Z,4.75
2019-05-29T18:34:15.187Z,2.62
2019-05-29T18:36:41.532Z,3.90
2019-05-29T18:39:07.934Z,2.22
2019-05-29T18:41:34.586Z,5.70
2019-05-29T18:44:00.908Z,3.37
2019-05-29T18:46:27.299Z,3.47
2019-05-29T18:48:53.483Z,2.12
2019-05-29T18:51:20.446Z,3.30
2019-05-29T18:53:46.826Z,3.85
2019-05-29T18:56:13.254Z,4.70
2019-05-29T18:58:39.542Z,3.17
2019-05-29T19:01:05.759Z,2.30
2019-05-29T19:03:32.702Z,4.47
2019-05-29T19:05:58.943Z,1.72
2019-05-29T19:08:25.737Z,6.85
2019-05-29T19:10:52.054Z,4.08
2019-05-29T19:13:18.243Z,3.00
2019-05-29T19:15:44.703Z,5.03
2019-05-29T19:18:11.122Z,3.75
2019-05-29T19:20:37.384Z,4.08
2019-05-29T19:23:03.766Z,3.10
2019-05-29T19:25:30.831Z,3.62
2019-05-29T19:27:57.394Z,4.33
2019-05-29T19:30:24.837Z,4.55
2019-05-29T19:32:51.132Z,3.30
2019-05-29T19:35:17.542Z,4.05
2019-05-29T19:37:43.656Z,2.05
2019-05-29T19:40:10.608Z,2.47
2019-05-29T19:42:37.020Z,2.08
2019-05-29T19:45:05.880Z,3.20
2019-05-29T19:47:32.782Z,4.45
2019-05-29T19:49:59.218Z,3.55
2019-05-29T19:52:25.559Z,4.03
2019-05-29T19:54:51.799Z,4.45
2019-05-29T19:57:18.215Z,5.35
2019-05-29T19:59:44.623Z,5.62
2019-05-29T20:02:11.058Z,3.22
2019-05-29T20:04:37.362Z,3.35
2019-05-29T20:07:04.799Z,3.00
2019-05-29T20:09:31.276Z,3.10
2019-05-29T20:11:57.520Z,3.00
2019-05-29T20:14:23.773Z,2.27
2019-05-29T20:16:49.888Z,6.83
2019-05-29T20:19:16.206Z,2.58
2019-05-29T20:21:42.312Z,2.60
2019-05-29T20:24:08.567Z,3.70
2019-05-29T20:26:35.190Z,2.65
2019-05-29T20:29:01.605Z,4.65
2019-05-29T20:31:27.717Z,1.98
2019-05-29T20:33:53.978Z,3.70
2019-05-29T20:36:20.145Z,3.35
2019-05-29T20:38:46.548Z,3.58
2019-05-29T20:41:13.218Z,5.62
2019-05-29T20:43:39.854Z,3.35
2019-05-29T20:46:05.933Z,5.20
2019-05-29T20:48:32.540Z,2.40
2019-05-29T20:50:58.962Z,2.85
2019-05-29T20:53:25.428Z,4.62
2019-05-29T20:55:51.590Z,5.00
2019-05-29T20:58:24.608Z,3.70
2019-05-29T21:00:46.233Z,4.42
2019-05-29T21:03:12.439Z,5.70
2019-05-29T21:05:39.142Z,4.85
2019-05-29T21:08:05.456Z,3.05
2019-05-29T21:10:33.009Z,3.45
2019-05-29T21:12:59.477Z,4.08
2019-05-29T21:15:25.947Z,1.30
2019-05-29T21:17:52.283Z,2.75
2019-05-29T21:20:18.714Z,3.92
2019-05-29T21:22:45.160Z,4.22
2019-05-29T21:25:16.373Z,4.95
2019-05-29T21:27:43.853Z,2.83
2019-05-29T21:30:11.014Z,1.37
2019-05-29T21:32:37.917Z,5.47
2019-05-29T21:35:05.389Z,2.47
2019-05-29T21:37:31.601Z,2.60
2019-05-29T21:39:57.993Z,2.65
2019-05-29T21:42:24.147Z,1.70
2019-05-29T21:44:50.464Z,2.58
2019-05-29T21:47:16.688Z,4.35
2019-05-29T21:49:43.336Z,2.62
2019-05-29T21:52:09.596Z,3.75
2019-05-29T21:54:37.222Z,2.30
2019-05-29T21:57:03.813Z,4.12
2019-05-29T21:59:30.243Z,3.30
2019-05-29T22:01:56.645Z,3.45
2019-05-29T22:04:23.366Z,5.90
2019-05-29T22:06:50.866Z,5.22
2019-05-29T22:09:18.369Z,4.62
2019-05-29T22:11:44.652Z,5.78
2019-05-29T22:14:10.930Z,8.35
2019-05-29T22:16:37.244Z,9.10
2019-05-29T22:19:04.347Z,5.35
2019-05-29T22:21:30.825Z,4.30
2019-05-29T22:23:57.190Z,5.30
2019-05-29T22:26:23.324Z,3.92
2019-05-29T22:28:49.684Z,7.65
2019-05-29T22:31:16.307Z,8.08
2019-05-29T22:33:42.585Z,5.92
2019-05-29T22:36:09.292Z,4.80
2019-05-29T22:38:35.662Z,6.22
2019-05-29T22:41:02.046Z,5.25
2019-05-29T22:43:28.446Z,5.40
2019-05-29T22:45:55.606Z,5.92
2019-05-29T22:48:21.997Z,5.45
2019-05-29T22:50:48.647Z,3.60
2019-05-29T22:53:15.028Z,4.50
2019-05-29T22:55:41.249Z,4.60
2019-05-29T22:58:07.554Z,4.05
2019-05-29T23:00:33.884Z,5.67
2019-05-29T23:03:00.244Z,5.45
2019-05-29T23:05:26.973Z,5.15
2019-05-29T23:07:54.126Z,5.25
2019-05-29T23:10:20.513Z,5.05
2019-05-29T23:12:46.712Z,6.25
2019-05-29T23:15:13.225Z,5.92
2019-05-29T23:17:44.948Z,5.30
2019-05-29T23:20:11.381Z,5.78
2019-05-29T23:22:37.696Z,5.15
2019-05-29T23:25:04.696Z,3.52
2019-05-29T23:27:30.993Z,3.85
2019-05-29T23:29:57.298Z,5.95
2019-05-29T23:32:23.651Z,5.08
2019-05-29T23:34:50.070Z,3.55
2019-05-29T23:37:16.587Z,6.08
2019-05-29T23:39:42.876Z,4.92
2019-05-29T23:42:12.480Z,4.40
2019-05-29T23:44:38.975Z,6.97
2019-05-29T23:47:07.462Z,3.58
2019-05-29T23:49:34.086Z,5.22
2019-05-29T23:52:02.505Z,4.62
2019-05-29T23:54:28.799Z,7.20
2019-05-29T23:56:55.857Z,7.08
2019-05-29T23:59:22.404Z,6.22
